createdAt,value
2023-12-27T00:06:25.289Z,84.24
2023-12-27T00:29:16.031Z,84.89
2023-12-27T00:52:06.941Z,85.22
2023-12-27T01:14:57.785Z,85.22
2023-12-27T01:37:49.816Z,86.23
2023-12-27T02:00:48.462Z,87.94
2023-12-27T02:23:42.523Z,86.22
2023-12-27T02:46:37.468Z,84.14
2023-12-27T03:09:28.468Z,84.39
2023-12-27T03:32:19.169Z,85.81
2023-12-27T03:55:11.322Z,86.71
2023-12-27T04:18:02.697Z,88.18
2023-12-27T04:40:55.657Z,89.43
2023-12-27T05:03:46.700Z,89.63
2023-12-27T05:26:37.413Z,90.40
2023-12-27T05:49:28.426Z,89.93
2023-12-27T06:12:19.563Z,90.43
2023-12-27T06:35:10.502Z,90.93
2023-12-27T06:58:01.636Z,91.77
2023-12-27T07:20:52.410Z,92.45
2023-12-27T07:43:43.205Z,91.90
2023-12-27T08:06:36.435Z,91.68
2023-12-27T08:29:28.002Z,91.93
2023-12-27T08:52:18.883Z,91.63
2023-12-27T09:15:10.097Z,90.14
2023-12-27T09:38:00.950Z,88.69
2023-12-27T10:00:54.435Z,86.50
2023-12-27T10:23:45.107Z,84.07
2023-12-27T10:46:36.066Z,82.60
2023-12-27T11:09:31.548Z,81.50
2023-12-27T11:32:22.149Z,79.29
2023-12-27T11:55:21.330Z,80.09
2023-12-27T12:18:13.342Z,80.19
2023-12-27T12:41:04.888Z,82.46
2023-12-27T13:03:58.174Z,83.83
2023-12-27T13:26:48.761Z,86.35
2023-12-27T13:49:39.599Z,90.04
2023-12-27T14:12:30.465Z,91.40
2023-12-27T14:35:22.898Z,91.83
2023-12-27T14:58:13.950Z,91.91
2023-12-27T15:21:06.011Z,92.17
2023-12-27T15:44:00.853Z,92.08
2023-12-27T16:06:51.945Z,91.68
2023-12-27T16:29:44.562Z,91.66
2023-12-27T16:52:35.464Z,91.09
2023-12-27T17:15:26.642Z,91.28
2023-12-27T17:38:17.876Z,91.53
2023-12-27T18:01:09.915Z,91.41
2023-12-27T18:24:01.833Z,91.43
2023-12-27T18:46:53.080Z,90.97
2023-12-27T19:09:43.970Z,90.83
2023-12-27T19:32:35.362Z,89.09
2023-12-27T19:55:26.563Z,88.93
2023-12-27T20:18:18.422Z,87.57
2023-12-27T20:41:10.324Z,86.93
2023-12-27T21:15:54.063Z,82.33
2023-12-27T21:38:50.391Z,78.35
2023-12-27T22:01:48.668Z,71.74
2023-12-27T22:24:41.578Z,77.52
2023-12-27T22:47:34.913Z,85.05
2023-12-27T23:10:27.746Z,81.36
2023-12-27T23:33:20.577Z,79.57
2023-12-27T23:56:18.644Z,84.39
